createdAt,value
2023-05-18T00:00:02.656Z,82.29
2023-05-18T00:01:02.556Z,83.77
2023-05-18T00:02:02.898Z,84.39
2023-05-18T00:03:02.098Z,84.49
2023-05-18T00:04:01.880Z,85.52
2023-05-18T00:05:01.895Z,85.31
2023-05-18T00:06:02.272Z,85.22
2023-05-18T00:07:01.988Z,84.59
2023-05-18T00:08:03.071Z,84.29
2023-05-18T00:09:02.532Z,85.15
2023-05-18T00:10:02.477Z,84.94
2023-05-18T00:11:02.884Z,84.74
2023-05-18T00:12:02.508Z,84.84
2023-05-18T00:13:01.536Z,84.01
2023-05-18T00:14:02.120Z,84.33
2023-05-18T00:15:01.933Z,84.84
2023-05-18T00:16:01.878Z,83.91
2023-05-18T00:17:02.081Z,83.81
2023-05-18T00:18:01.594Z,83.61
2023-05-18T00:19:01.547Z,82.98
2023-05-18T00:20:01.601Z,83.29
2023-05-18T00:21:02.393Z,82.78
2023-05-18T00:22:01.791Z,83.29
2023-05-18T00:23:02.562Z,83.71
2023-05-18T00:24:02.169Z,84.33
2023-05-18T00:25:02.425Z,83.40
2023-05-18T00:26:02.281Z,83.19
2023-05-18T00:27:02.087Z,83.29
2023-05-18T00:28:01.924Z,83.61
2023-05-18T00:29:01.747Z,85.30
2023-05-18T00:30:02.119Z,86.22
2023-05-18T00:31:01.997Z,85.19
2023-05-18T00:32:02.309Z,84.47
2023-05-18T00:33:02.277Z,83.95
2023-05-18T00:34:01.912Z,83.75
2023-05-18T00:35:01.926Z,84.78
2023-05-18T00:36:02.155Z,84.47
2023-05-18T00:37:01.981Z,87.26
2023-05-18T00:38:02.746Z,86.02
2023-05-18T00:39:02.193Z,84.67
2023-05-18T00:40:02.394Z,84.27
2023-05-18T00:41:02.236Z,84.36
2023-05-18T00:42:02.839Z,83.85
2023-05-18T00:43:02.210Z,83.54
2023-05-18T00:44:02.061Z,84.47
2023-05-18T00:45:01.940Z,85.30
2023-05-18T00:46:02.445Z,84.92
2023-05-18T00:47:02.164Z,84.41
2023-05-18T00:48:01.763Z,84.92
2023-05-18T00:49:01.627Z,85.33
2023-05-18T00:50:01.467Z,84.92
2023-05-18T00:51:01.657Z,85.02
2023-05-18T00:52:01.393Z,85.33
2023-05-18T00:53:02.048Z,85.02
2023-05-18T00:54:01.685Z,84.51
2023-05-18T00:55:02.051Z,83.78
2023-05-18T00:56:01.877Z,84.20
2023-05-18T00:57:02.273Z,84.30
2023-05-18T00:58:02.703Z,85.99
2023-05-18T00:59:02.288Z,84.72
2023-05-18T01:00:02.514Z,84.30
2023-05-18T01:01:02.473Z,85.68
2023-05-18T01:02:02.392Z,85.99
2023-05-18T01:03:03.577Z,86.30
2023-05-18T01:04:02.972Z,85.68
2023-05-18T01:05:03.133Z,85.78
2023-05-18T01:06:02.627Z,85.58
2023-05-18T01:07:02.622Z,85.78
2023-05-18T01:08:03.306Z,87.23
2023-05-18T01:09:03.493Z,86.51
2023-05-18T01:10:03.522Z,86.10
2023-05-18T01:11:03.504Z,85.17
2023-05-18T01:12:03.108Z,85.06
2023-05-18T01:13:02.762Z,84.34
2023-05-18T01:14:02.464Z,85.89
2023-05-18T01:15:02.441Z,85.89
2023-05-18T01:16:02.611Z,86.30
2023-05-18T01:17:02.584Z,88.47
2023-05-18T01:18:02.977Z,87.44
2023-05-18T01:19:02.676Z,85.58
2023-05-18T01:20:03.109Z,85.62
2023-05-18T01:21:03.090Z,85.72
2023-05-18T01:22:03.181Z,84.89
2023-05-18T01:23:02.739Z,84.28
2023-05-18T01:24:02.744Z,84.69
2023-05-18T01:25:02.820Z,86.03
2023-05-18T01:26:02.706Z,84.38
2023-05-18T01:27:03.182Z,86.65
2023-05-18T01:28:03.446Z,87.79
2023-05-18T01:29:03.070Z,89.23
2023-05-18T01:30:03.470Z,87.07
2023-05-18T01:31:03.298Z,86.65
2023-05-18T01:32:03.528Z,85.31
2023-05-18T01:33:02.907Z,86.24
2023-05-18T01:34:02.616Z,85.93
2023-05-18T01:35:02.891Z,86.76
2023-05-18T01:36:02.751Z,85.83
2023-05-18T01:37:02.794Z,85.72
2023-05-18T01:38:03.331Z,87.10
2023-05-18T01:39:03.314Z,87.87
2023-05-18T01:40:03.408Z,87.35
2023-05-18T01:41:03.452Z,87.35
2023-05-18T01:42:03.346Z,88.39
2023-05-18T01:43:02.914Z,89.11
2023-05-18T01:44:02.645Z,89.42
2023-05-18T01:45:02.779Z,89.11
2023-05-18T01:46:02.410Z,88.90
2023-05-18T01:47:02.926Z,88.80
2023-05-18T01:48:03.192Z,87.87
2023-05-18T01:49:02.872Z,87.04
2023-05-18T01:50:02.757Z,87.15
2023-05-18T01:51:02.692Z,87.56
2023-05-18T01:52:02.568Z,87.46
2023-05-18T01:53:02.703Z,88.28
2023-05-18T01:54:02.693Z,89.36
2023-05-18T01:55:03.260Z,89.46
2023-05-18T01:56:02.847Z,88.94
2023-05-18T01:57:02.751Z,89.15
2023-05-18T01:58:03.324Z,89.67
2023-05-18T01:59:02.975Z,89.98
2023-05-18T02:00:02.998Z,90.50
2023-05-18T02:01:02.978Z,91.22
2023-05-18T02:02:03.439Z,91.53
2023-05-18T02:03:02.844Z,92.15
2023-05-18T02:04:02.856Z,91.07
2023-05-18T02:05:02.652Z,90.87
2023-05-18T02:06:02.214Z,90.19
2023-05-18T02:07:02.505Z,91.01
2023-05-18T02:08:03.149Z,91.63
2023-05-18T02:09:02.821Z,90.19
2023-05-18T02:10:03.006Z,90.29
2023-05-18T02:11:02.913Z,91.32
2023-05-18T02:12:02.835Z,89.36
2023-05-18T02:13:01.830Z,88.32
2023-05-18T02:14:02.417Z,87.39
2023-05-18T02:15:01.997Z,87.91
2023-05-18T02:16:01.815Z,87.81
2023-05-18T02:17:02.012Z,87.49
2023-05-18T02:18:02.296Z,87.29
2023-05-18T02:19:02.540Z,87.29
2023-05-18T02:20:02.521Z,86.88
2023-05-18T02:21:02.714Z,86.15
2023-05-18T02:22:02.792Z,85.84
2023-05-18T02:23:03.079Z,85.32
2023-05-18T02:24:03.048Z,85.53
2023-05-18T02:25:02.973Z,86.71
2023-05-18T02:26:02.605Z,86.91
2023-05-18T02:27:02.943Z,88.36
2023-05-18T02:28:02.140Z,88.46
2023-05-18T02:29:01.998Z,88.98
2023-05-18T02:30:02.151Z,88.57
2023-05-18T02:31:02.065Z,88.26
2023-05-18T02:32:02.157Z,88.06
2023-05-18T02:33:02.260Z,88.16
2023-05-18T02:34:02.605Z,88.88
2023-05-18T02:35:02.140Z,88.78
2023-05-18T02:36:02.819Z,87.95
2023-05-18T02:37:02.588Z,87.64
2023-05-18T02:38:02.450Z,87.12
2023-05-18T02:39:02.631Z,87.02
2023-05-18T02:40:02.567Z,86.91
2023-05-18T02:41:02.882Z,87.85
2023-05-18T02:42:02.651Z,86.60
2023-05-18T02:43:02.454Z,86.29
2023-05-18T02:44:02.592Z,86.19
2023-05-18T02:45:02.971Z,86.19
2023-05-18T02:46:02.766Z,86.50
2023-05-18T02:47:02.376Z,85.99
2023-05-18T02:48:01.965Z,86.50
2023-05-18T02:49:02.319Z,86.09
2023-05-18T02:50:01.869Z,88.46
2023-05-18T02:51:01.821Z,90.44
2023-05-18T02:52:01.929Z,90.33
2023-05-18T02:53:02.779Z,91.47
2023-05-18T02:54:02.384Z,90.74
2023-05-18T02:55:02.610Z,89.09
2023-05-18T02:56:02.322Z,87.95
2023-05-18T02:57:02.948Z,87.54
2023-05-18T02:58:02.616Z,86.60
2023-05-18T02:59:02.767Z,86.81
2023-05-18T03:00:02.633Z,87.27
2023-05-18T03:01:02.785Z,87.37
2023-05-18T03:02:02.802Z,88.30
2023-05-18T03:03:03.893Z,88.09
2023-05-18T03:04:03.645Z,88.30
2023-05-18T03:05:03.505Z,89.54
2023-05-18T03:06:03.306Z,87.27
2023-05-18T03:07:03.755Z,86.44
2023-05-18T03:08:03.380Z,85.82
2023-05-18T03:09:03.718Z,86.23
2023-05-18T03:10:03.336Z,85.71
2023-05-18T03:11:03.588Z,87.27
2023-05-18T03:12:03.751Z,87.41
2023-05-18T03:13:03.308Z,86.89
2023-05-18T03:14:03.452Z,86.27
2023-05-18T03:15:03.179Z,87.62
2023-05-18T03:16:02.978Z,88.13
2023-05-18T03:17:02.759Z,87.51
2023-05-18T03:18:03.590Z,87.10
2023-05-18T03:19:03.398Z,87.41
2023-05-18T03:20:03.616Z,87.72
2023-05-18T03:21:03.543Z,88.55
2023-05-18T03:22:03.510Z,88.96
2023-05-18T03:23:03.387Z,87.10
2023-05-18T03:24:02.991Z,87.51
2023-05-18T03:25:03.243Z,87.41
2023-05-18T03:26:03.453Z,89.17
2023-05-18T03:27:03.180Z,88.13
2023-05-18T03:28:02.810Z,87.72
2023-05-18T03:29:02.944Z,87.93
2023-05-18T03:30:02.528Z,87.20
2023-05-18T03:31:03.040Z,86.79
2023-05-18T03:32:02.646Z,87.30
2023-05-18T03:33:03.247Z,86.68
2023-05-18T03:34:03.442Z,86.07
2023-05-18T03:35:03.295Z,85.75
2023-05-18T03:36:03.207Z,88.76
2023-05-18T03:37:03.163Z,89.58
2023-05-18T03:38:02.842Z,87.72
2023-05-18T03:39:02.661Z,88.45
2023-05-18T03:40:02.558Z,87.62
2023-05-18T03:41:02.953Z,87.10
2023-05-18T03:42:02.998Z,86.79
2023-05-18T03:43:03.458Z,86.37
2023-05-18T03:44:03.445Z,85.86
2023-05-18T03:45:02.881Z,86.62
2023-05-18T03:46:02.962Z,86.72
2023-05-18T03:47:03.075Z,86.41
2023-05-18T03:48:02.886Z,86.21
2023-05-18T03:49:02.923Z,86.83
2023-05-18T03:50:02.856Z,86.31
2023-05-18T03:51:02.864Z,85.79
2023-05-18T03:52:02.582Z,86.10
2023-05-18T03:53:03.208Z,86.10
2023-05-18T03:54:03.282Z,86.10
2023-05-18T03:55:03.181Z,85.89
2023-05-18T03:56:03.055Z,85.69
2023-05-18T03:57:02.897Z,86.00
2023-05-18T03:58:03.548Z,86.72
2023-05-18T03:59:03.392Z,87.45
2023-05-18T04:00:03.144Z,86.83
2023-05-18T04:01:03.459Z,86.62
2023-05-18T04:02:03.382Z,86.21
2023-05-18T04:03:02.916Z,85.58
2023-05-18T04:04:03.318Z,85.48
2023-05-18T04:05:03.092Z,86.10
2023-05-18T04:06:02.979Z,86.31
2023-05-18T04:07:02.886Z,86.04
2023-05-18T04:08:02.580Z,86.25
2023-05-18T04:09:02.440Z,88.01
2023-05-18T04:10:02.407Z,87.90
2023-05-18T04:11:02.433Z,87.70
2023-05-18T04:12:02.531Z,87.59
2023-05-18T04:13:02.661Z,87.38
2023-05-18T04:14:02.280Z,87.38
2023-05-18T04:15:02.146Z,88.94
2023-05-18T04:16:02.567Z,89.40
2023-05-18T04:17:02.514Z,89.92
2023-05-18T04:18:03.279Z,90.54
2023-05-18T04:19:04.425Z,91.47
2023-05-18T04:20:03.067Z,91.68
2023-05-18T04:21:02.933Z,92.20
2023-05-18T04:22:02.881Z,92.86
2023-05-18T04:23:02.345Z,93.28
2023-05-18T04:24:02.330Z,93.38
2023-05-18T04:25:02.567Z,93.38
2023-05-18T04:26:02.505Z,94.11
2023-05-18T04:27:02.061Z,94.21
2023-05-18T04:28:03.045Z,94.01
2023-05-18T04:29:02.780Z,93.54
2023-05-18T04:30:02.675Z,92.82
2023-05-18T04:31:02.684Z,92.82
2023-05-18T04:32:02.836Z,93.02
2023-05-18T04:33:02.683Z,92.41
2023-05-18T04:34:02.405Z,92.16
2023-05-18T04:35:02.391Z,91.53
2023-05-18T04:36:02.378Z,90.81
2023-05-18T04:37:02.380Z,90.81
2023-05-18T04:38:02.004Z,91.47
2023-05-18T04:39:02.092Z,92.61
2023-05-18T04:40:02.076Z,93.44
2023-05-18T04:41:02.452Z,94.06
2023-05-18T04:42:02.213Z,94.48
2023-05-18T04:43:02.321Z,94.48
2023-05-18T04:44:02.780Z,93.75
2023-05-18T04:45:02.972Z,94.06
2023-05-18T04:46:02.718Z,94.37
2023-05-18T04:47:02.651Z,94.68
2023-05-18T04:48:02.369Z,95.00
2023-05-18T04:49:02.963Z,95.31
2023-05-18T04:50:02.668Z,95.31
2023-05-18T04:51:02.586Z,95.00
2023-05-18T04:52:02.752Z,94.89
2023-05-18T04:53:01.982Z,94.95
2023-05-18T04:54:02.298Z,95.31
2023-05-18T04:55:02.480Z,95.41
2023-05-18T04:56:02.560Z,95.72
2023-05-18T04:57:02.117Z,95.57
2023-05-18T04:58:02.067Z,95.72
2023-05-18T04:59:02.260Z,95.37
2023-05-18T05:00:02.023Z,95.16
2023-05-18T05:01:02.420Z,95.26
2023-05-18T05:02:02.491Z,94.81
2023-05-18T05:03:02.635Z,94.81
2023-05-18T05:04:02.705Z,93.98
2023-05-18T05:05:02.911Z,94.39
2023-05-18T05:06:02.962Z,94.04
2023-05-18T05:07:02.867Z,93.21
2023-05-18T05:08:02.910Z,93.10
2023-05-18T05:09:03.166Z,93.62
2023-05-18T05:10:02.980Z,94.35
2023-05-18T05:11:03.059Z,94.24
2023-05-18T05:12:03.320Z,93.37
2023-05-18T05:13:02.311Z,93.16
2023-05-18T05:14:02.587Z,93.99
2023-05-18T05:15:02.668Z,94.62
2023-05-18T05:16:02.368Z,94.62
2023-05-18T05:17:02.456Z,93.95
2023-05-18T05:18:02.520Z,93.64
2023-05-18T05:19:02.672Z,93.74
2023-05-18T05:20:02.619Z,94.06
2023-05-18T05:21:02.986Z,93.60
2023-05-18T05:22:02.723Z,93.08
2023-05-18T05:23:02.790Z,93.04
2023-05-18T05:24:02.714Z,93.24
2023-05-18T05:25:05.120Z,93.87
2023-05-18T05:26:02.750Z,93.87
2023-05-18T05:27:02.698Z,94.07
2023-05-18T05:28:02.375Z,94.03
2023-05-18T05:29:02.424Z,94.13
2023-05-18T05:30:02.256Z,94.13
2023-05-18T05:31:02.401Z,94.34
2023-05-18T05:32:02.517Z,94.29
2023-05-18T05:33:02.641Z,94.29
2023-05-18T05:34:02.592Z,93.68
2023-05-18T05:35:02.500Z,93.32
2023-05-18T05:36:02.544Z,93.12
2023-05-18T05:37:02.375Z,92.55
2023-05-18T05:38:02.770Z,92.35
2023-05-18T05:39:02.744Z,92.04
2023-05-18T05:40:02.757Z,91.79
2023-05-18T05:41:02.844Z,91.64
2023-05-18T05:42:02.976Z,91.54
2023-05-18T05:43:03.081Z,90.82
2023-05-18T05:44:03.061Z,90.67
2023-05-18T05:45:03.373Z,90.57
2023-05-18T05:46:03.180Z,90.33
2023-05-18T05:47:03.314Z,90.12
2023-05-18T05:48:02.558Z,89.56
2023-05-18T05:49:02.627Z,89.77
2023-05-18T05:50:02.928Z,89.22
2023-05-18T05:51:02.857Z,89.31
2023-05-18T05:52:02.819Z,88.96
2023-05-18T05:53:02.574Z,88.24
2023-05-18T05:54:02.596Z,87.49
2023-05-18T05:55:02.732Z,86.97
2023-05-18T05:56:02.815Z,87.24
2023-05-18T05:57:02.790Z,86.00
2023-05-18T05:58:02.936Z,85.90
2023-05-18T05:59:03.204Z,85.35
2023-05-18T06:00:02.901Z,85.25
2023-05-18T06:01:03.010Z,85.72
2023-05-18T06:02:02.982Z,85.31
2023-05-18T06:03:02.235Z,84.14
2023-05-18T06:04:02.158Z,82.91
2023-05-18T06:05:02.196Z,83.53
2023-05-18T06:06:02.273Z,83.49
2023-05-18T06:07:02.238Z,83.49
2023-05-18T06:08:02.611Z,83.07
2023-05-18T06:09:02.392Z,82.63
2023-05-18T06:10:02.883Z,82.53
2023-05-18T06:11:02.919Z,81.91
2023-05-18T06:12:02.952Z,82.08
2023-05-18T06:13:01.952Z,81.36
2023-05-18T06:14:02.349Z,80.64
2023-05-18T06:15:02.057Z,80.44
2023-05-18T06:16:01.675Z,80.64
2023-05-18T06:17:01.760Z,80.30
2023-05-18T06:18:02.003Z,81.12
2023-05-18T06:19:02.359Z,81.12
2023-05-18T06:20:01.952Z,80.98
2023-05-18T06:21:01.891Z,79.50
2023-05-18T06:22:01.992Z,79.41
2023-05-18T06:23:02.813Z,79.06
2023-05-18T06:24:02.682Z,78.75
2023-05-18T06:25:02.707Z,78.11
2023-05-18T06:26:02.782Z,77.59
2023-05-18T06:27:03.052Z,76.47
2023-05-18T06:28:02.087Z,75.24
2023-05-18T06:29:01.819Z,74.73
2023-05-18T06:30:02.281Z,74.73
2023-05-18T06:31:02.297Z,74.66
2023-05-18T06:32:02.403Z,75.48
2023-05-18T06:33:02.200Z,75.48
2023-05-18T06:34:02.406Z,76.37
2023-05-18T06:35:02.284Z,76.16
2023-05-18T06:36:02.141Z,76.03
2023-05-18T06:37:02.133Z,77.04
2023-05-18T06:38:02.238Z,77.22
2023-05-18T06:39:02.377Z,77.31
2023-05-18T06:40:02.544Z,77.28
2023-05-18T06:41:02.162Z,74.32
2023-05-18T06:42:02.016Z,76.02
2023-05-18T06:43:02.929Z,76.22
2023-05-18T06:44:02.879Z,75.20
2023-05-18T06:45:03.120Z,75.27
2023-05-18T06:46:03.386Z,74.86
2023-05-18T06:47:02.543Z,74.73
2023-05-18T06:48:02.048Z,73.71
2023-05-18T06:49:01.654Z,74.28
2023-05-18T06:50:01.580Z,74.08
2023-05-18T06:51:01.772Z,73.43
2023-05-18T06:52:01.919Z,72.38
2023-05-18T06:53:02.645Z,72.48
2023-05-18T06:54:02.803Z,73.50
2023-05-18T06:55:02.374Z,71.43
2023-05-18T06:56:02.903Z,69.19
2023-05-18T06:57:02.623Z,68.99
2023-05-18T06:58:02.736Z,69.60
2023-05-18T06:59:02.762Z,69.90
2023-05-18T07:00:02.983Z,70.92
2023-05-18T07:01:02.847Z,69.97
2023-05-18T07:02:02.848Z,69.46
2023-05-18T07:03:02.873Z,70.38
2023-05-18T07:04:02.655Z,71.30
2023-05-18T07:05:02.637Z,68.72
2023-05-18T07:06:02.428Z,69.53
2023-05-18T07:07:02.868Z,69.50
2023-05-18T07:08:03.050Z,69.81
2023-05-18T07:09:03.073Z,67.57
2023-05-18T07:10:02.811Z,67.67
2023-05-18T07:11:03.055Z,67.44
2023-05-18T07:12:02.978Z,68.25
2023-05-18T07:13:02.975Z,69.13
2023-05-18T07:14:03.047Z,67.91
2023-05-18T07:15:03.310Z,66.60
2023-05-18T07:16:03.265Z,67.00
2023-05-18T07:17:02.925Z,65.65
2023-05-18T07:18:02.792Z,64.64
2023-05-18T07:19:02.423Z,64.03
2023-05-18T07:20:02.615Z,64.23
2023-05-18T07:21:02.510Z,63.82
2023-05-18T07:22:02.805Z,64.73
2023-05-18T07:23:02.296Z,64.33
2023-05-18T07:24:02.093Z,64.33
2023-05-18T07:25:01.941Z,66.02
2023-05-18T07:26:02.083Z,65.21
2023-05-18T07:27:02.169Z,64.88
2023-05-18T07:28:02.464Z,63.86
2023-05-18T07:29:01.984Z,63.46
2023-05-18T07:30:02.538Z,64.17
2023-05-18T07:31:02.215Z,65.08
2023-05-18T07:32:02.547Z,64.44
2023-05-18T07:33:02.600Z,64.72
2023-05-18T07:34:02.589Z,63.20
2023-05-18T07:35:02.399Z,63.40
2023-05-18T07:36:02.219Z,64.41
2023-05-18T07:37:02.751Z,62.05
2023-05-18T07:38:02.504Z,63.17
2023-05-18T07:39:02.197Z,60.43
2023-05-18T07:40:02.565Z,61.44
2023-05-18T07:41:02.399Z,62.23
2023-05-18T07:42:02.710Z,61.69
2023-05-18T07:43:02.333Z,60.58
2023-05-18T07:44:02.003Z,62.90
2023-05-18T07:45:02.179Z,61.46
2023-05-18T07:46:02.029Z,60.45
2023-05-18T07:47:02.246Z,62.47
2023-05-18T07:48:02.983Z,60.05
2023-05-18T07:49:02.945Z,60.05
2023-05-18T07:50:02.848Z,60.14
2023-05-18T07:51:02.342Z,60.25
2023-05-18T07:52:02.525Z,59.91
2023-05-18T07:53:03.004Z,61.10
2023-05-18T07:54:02.705Z,61.30
2023-05-18T07:55:02.888Z,58.58
2023-05-18T07:56:03.033Z,58.17
2023-05-18T07:57:03.111Z,58.47
2023-05-18T07:58:02.673Z,57.97
2023-05-18T07:59:02.531Z,59.69
2023-05-18T08:00:02.639Z,59.35
2023-05-18T08:01:02.448Z,58.65
2023-05-18T08:02:02.290Z,58.04
2023-05-18T08:03:01.759Z,56.43
2023-05-18T08:04:01.853Z,57.36
2023-05-18T08:05:01.584Z,56.83
2023-05-18T08:06:02.008Z,56.56
2023-05-18T08:07:01.953Z,57.67
2023-05-18T08:08:02.628Z,57.69
2023-05-18T08:09:02.581Z,57.46
2023-05-18T08:10:02.155Z,56.78
2023-05-18T08:11:02.314Z,58.00
2023-05-18T08:12:02.004Z,59.61
2023-05-18T08:13:02.129Z,58.37
2023-05-18T08:14:02.256Z,57.64
2023-05-18T08:15:02.157Z,57.74
2023-05-18T08:16:11.075Z,57.91
2023-05-18T08:17:02.715Z,57.08
2023-05-18T08:18:02.409Z,56.77
2023-05-18T08:19:02.527Z,56.35
2023-05-18T08:20:02.888Z,56.15
2023-05-18T08:21:02.898Z,58.36
2023-05-18T08:22:02.937Z,56.45
2023-05-18T08:23:02.781Z,57.05
2023-05-18T08:24:02.382Z,57.63
2023-05-18T08:25:01.852Z,57.43
2023-05-18T08:26:01.992Z,55.19
2023-05-18T08:27:02.056Z,55.08
2023-05-18T08:28:01.866Z,56.47
2023-05-18T08:29:02.375Z,56.16
2023-05-18T08:30:02.493Z,55.23
2023-05-18T08:31:02.682Z,54.63
2023-05-18T08:32:02.673Z,54.73
2023-05-18T08:33:02.676Z,53.52
2023-05-18T08:34:01.873Z,54.53
2023-05-18T08:35:02.246Z,55.74
2023-05-18T08:36:02.133Z,53.50
2023-05-18T08:37:02.356Z,55.00
2023-05-18T08:38:02.978Z,53.07
2023-05-18T08:39:02.817Z,51.97
2023-05-18T08:40:02.717Z,53.65
2023-05-18T08:41:02.857Z,53.75
2023-05-18T08:42:02.521Z,53.55
2023-05-18T08:43:02.689Z,52.04
2023-05-18T08:44:02.994Z,52.92
2023-05-18T08:45:02.830Z,51.61
2023-05-18T08:46:02.710Z,52.32
2023-05-18T08:47:02.572Z,53.12
2023-05-18T08:48:02.748Z,53.92
2023-05-18T08:49:02.220Z,52.32
2023-05-18T08:50:01.536Z,52.59
2023-05-18T08:51:01.871Z,52.39
2023-05-18T08:52:01.978Z,52.57
2023-05-18T08:53:01.661Z,51.37
2023-05-18T08:54:02.349Z,54.25
2023-05-18T08:55:02.426Z,51.14
2023-05-18T08:56:02.460Z,51.54
2023-05-18T08:57:02.265Z,49.43
2023-05-18T08:58:02.355Z,51.44
2023-05-18T08:59:02.022Z,49.74
2023-05-18T09:00:01.955Z,50.74
2023-05-18T09:01:01.725Z,51.64
2023-05-18T09:02:01.995Z,50.74
2023-05-18T09:03:02.179Z,50.34
2023-05-18T09:04:02.353Z,47.93
2023-05-18T09:05:02.417Z,48.55
2023-05-18T09:06:02.455Z,49.05
2023-05-18T09:07:01.827Z,47.47
2023-05-18T09:08:01.862Z,49.18
2023-05-18T09:09:02.734Z,48.98
2023-05-18T09:10:02.568Z,47.60
2023-05-18T09:11:02.385Z,48.72
2023-05-18T09:12:02.454Z,51.92
2023-05-18T09:13:02.738Z,51.89
2023-05-18T09:14:02.515Z,51.56
2023-05-18T09:15:02.694Z,51.84
2023-05-18T09:16:02.724Z,50.01
2023-05-18T09:17:02.557Z,49.11
2023-05-18T09:18:02.466Z,48.71
2023-05-18T09:19:02.772Z,50.81
2023-05-18T09:20:02.712Z,50.71
2023-05-18T09:21:03.264Z,50.11
2023-05-18T09:22:03.273Z,51.19
2023-05-18T09:23:03.157Z,48.57
2023-05-18T09:24:02.766Z,47.06
2023-05-18T09:25:02.393Z,49.07
2023-05-18T09:26:02.547Z,47.46
2023-05-18T09:27:02.446Z,46.76
2023-05-18T09:28:02.683Z,46.66
2023-05-18T09:29:02.350Z,46.56
2023-05-18T09:30:02.658Z,47.16
2023-05-18T09:31:02.378Z,47.76
2023-05-18T09:32:02.847Z,47.94
2023-05-18T09:33:02.435Z,46.84
2023-05-18T09:34:02.550Z,46.44
2023-05-18T09:35:02.410Z,48.64
2023-05-18T09:36:02.564Z,48.52
2023-05-18T09:37:02.804Z,48.42
2023-05-18T09:38:02.992Z,47.19
2023-05-18T09:39:02.312Z,49.99
2023-05-18T09:40:02.465Z,49.79
2023-05-18T09:41:02.573Z,47.67
2023-05-18T09:42:02.534Z,45.89
2023-05-18T09:43:02.622Z,46.30
2023-05-18T09:44:02.990Z,46.50
2023-05-18T09:45:02.812Z,45.20
2023-05-18T09:46:02.924Z,46.42
2023-05-18T09:47:03.427Z,47.04
2023-05-18T09:48:02.890Z,49.14
2023-05-18T09:49:02.624Z,48.64
2023-05-18T09:50:02.811Z,45.54
2023-05-18T09:51:03.226Z,45.43
2023-05-18T09:52:03.171Z,47.24
2023-05-18T09:53:02.612Z,46.14
2023-05-18T09:54:02.812Z,46.64
2023-05-18T09:55:03.015Z,47.76
2023-05-18T09:56:02.870Z,48.96
2023-05-18T09:57:10.688Z,49.44
2023-05-18T09:58:02.892Z,48.52
2023-05-18T09:59:02.411Z,48.11
2023-05-18T10:00:02.099Z,47.61
2023-05-18T10:01:02.291Z,46.09
2023-05-18T10:02:02.674Z,46.59
2023-05-18T10:03:02.328Z,45.59
2023-05-18T10:04:03.130Z,46.30
2023-05-18T10:05:02.650Z,44.27
2023-05-18T10:06:02.903Z,45.67
2023-05-18T10:07:03.011Z,45.87
2023-05-18T10:08:02.573Z,45.67
2023-05-18T10:09:03.269Z,44.57
2023-05-18T10:10:02.903Z,44.57
2023-05-18T10:11:02.759Z,45.17
2023-05-18T10:12:03.213Z,44.07
2023-05-18T10:13:03.081Z,43.77
2023-05-18T10:14:02.797Z,45.50
2023-05-18T10:15:02.893Z,45.09
2023-05-18T10:16:02.330Z,45.20
2023-05-18T10:18:02.767Z,45.69
2023-05-18T10:19:02.879Z,46.00
2023-05-18T10:20:03.062Z,45.29
2023-05-18T10:21:02.810Z,43.90
2023-05-18T10:22:03.035Z,45.09
2023-05-18T10:23:02.722Z,45.27
2023-05-18T10:24:02.956Z,43.77
2023-05-18T10:25:03.018Z,45.87
2023-05-18T10:26:03.244Z,44.27
2023-05-18T10:27:03.402Z,43.77
2023-05-18T10:28:02.814Z,45.17
2023-05-18T10:29:02.591Z,46.77
2023-05-18T10:30:02.926Z,43.67
2023-05-18T10:31:02.953Z,45.67
2023-05-18T10:32:04.472Z,44.17
2023-05-18T10:33:03.960Z,44.97
2023-05-18T10:34:03.005Z,44.27
2023-05-18T10:35:02.526Z,44.39
2023-05-18T10:36:02.989Z,44.20
2023-05-18T10:37:02.570Z,43.40
2023-05-18T10:38:02.553Z,45.89
2023-05-18T10:39:03.056Z,43.48
2023-05-18T10:40:02.940Z,42.65
2023-05-18T10:41:03.011Z,41.46
2023-05-18T10:42:02.917Z,42.55
2023-05-18T10:43:02.763Z,42.65
2023-05-18T10:44:03.361Z,41.44
2023-05-18T10:45:02.909Z,41.05
2023-05-18T10:46:03.103Z,43.03
2023-05-18T10:47:03.351Z,43.53
2023-05-18T10:48:03.199Z,44.03
2023-05-18T10:49:02.543Z,43.23
2023-05-18T10:50:02.642Z,41.14
2023-05-18T10:51:02.612Z,40.23
2023-05-18T10:52:02.608Z,41.24
2023-05-18T10:53:02.778Z,40.44
2023-05-18T10:54:02.952Z,42.35
2023-05-18T10:55:03.071Z,42.55
2023-05-18T10:56:03.232Z,43.03
2023-05-18T10:57:02.930Z,43.13
2023-05-18T10:58:02.820Z,43.13
2023-05-18T10:59:03.051Z,42.54
2023-05-18T11:00:02.705Z,42.03
2023-05-18T11:01:03.137Z,41.03
2023-05-18T11:02:02.939Z,40.94
2023-05-18T11:03:03.138Z,42.61
2023-05-18T11:04:02.334Z,40.81
2023-05-18T11:05:02.149Z,40.25
2023-05-18T11:06:02.459Z,43.05
2023-05-18T11:07:02.453Z,43.55
2023-05-18T11:08:02.490Z,40.73
2023-05-18T11:09:02.754Z,40.66
2023-05-18T11:10:02.469Z,39.18
2023-05-18T11:11:02.802Z,41.21
2023-05-18T11:12:02.379Z,42.82
2023-05-18T11:13:02.548Z,42.90
2023-05-18T11:14:02.219Z,43.90
2023-05-18T11:15:02.457Z,42.68
2023-05-18T11:16:02.907Z,41.88
2023-05-18T11:17:02.836Z,42.47
2023-05-18T11:18:02.616Z,43.05
2023-05-18T11:19:03.005Z,42.15
2023-05-18T11:20:02.699Z,42.54
2023-05-18T11:21:02.599Z,41.25
2023-05-18T11:22:02.507Z,41.85
2023-05-18T11:23:02.789Z,42.24
2023-05-18T11:24:02.019Z,42.63
2023-05-18T11:25:01.996Z,43.13
2023-05-18T11:26:02.083Z,42.71
2023-05-18T11:27:02.093Z,41.91
2023-05-18T11:28:01.998Z,41.69
2023-05-18T11:29:01.902Z,41.47
2023-05-18T11:30:14.913Z,42.57
2023-05-18T11:31:02.343Z,39.56
2023-05-18T11:32:02.564Z,40.58
2023-05-18T11:33:02.214Z,41.69
2023-05-18T11:34:02.867Z,42.69
2023-05-18T11:35:02.594Z,41.17
2023-05-18T11:36:02.762Z,40.70
2023-05-18T11:37:02.961Z,41.39
2023-05-18T11:38:02.923Z,41.00
2023-05-18T11:39:02.053Z,40.30
2023-05-18T11:40:05.606Z,40.10
2023-05-18T11:41:01.970Z,42.57
2023-05-18T11:42:01.865Z,42.37
2023-05-18T11:43:02.190Z,41.36
2023-05-18T11:44:02.642Z,42.45
2023-05-18T11:45:01.999Z,40.26
2023-05-18T11:46:02.660Z,40.76
2023-05-18T11:47:02.649Z,38.67
2023-05-18T11:48:02.394Z,41.16
2023-05-18T11:49:02.193Z,40.46
2023-05-18T11:50:02.261Z,40.16
2023-05-18T11:51:02.642Z,39.16
2023-05-18T11:52:02.661Z,41.16
2023-05-18T11:53:02.288Z,40.34
2023-05-18T11:54:02.519Z,37.75
2023-05-18T11:55:02.327Z,39.92
2023-05-18T11:56:02.665Z,42.11
2023-05-18T11:57:02.165Z,43.29
2023-05-18T11:58:02.236Z,41.38
2023-05-18T11:59:02.299Z,39.18
2023-05-18T12:00:02.140Z,39.57
2023-05-18T12:01:02.281Z,37.32
2023-05-18T12:02:01.862Z,38.67
2023-05-18T12:03:02.323Z,40.28
2023-05-18T12:04:02.562Z,42.15
2023-05-18T12:05:02.309Z,40.06
2023-05-18T12:06:02.740Z,39.78
2023-05-18T12:07:02.458Z,39.28
2023-05-18T12:08:02.052Z,41.17
2023-05-18T12:09:03.777Z,42.55
2023-05-18T12:10:02.237Z,42.73
2023-05-18T12:11:02.450Z,41.12
2023-05-18T12:12:02.556Z,41.71
2023-05-18T12:13:02.133Z,41.60
2023-05-18T12:14:02.717Z,41.50
2023-05-18T12:15:02.921Z,40.98
2023-05-18T12:16:02.553Z,39.18
2023-05-18T12:17:02.852Z,40.40
2023-05-18T12:18:03.297Z,40.60
2023-05-18T12:19:03.132Z,38.61
2023-05-18T12:20:02.927Z,39.72
2023-05-18T12:21:02.971Z,39.23
2023-05-18T12:22:02.973Z,39.12
2023-05-18T12:23:02.946Z,39.14
2023-05-18T12:24:02.758Z,39.44
2023-05-18T12:25:02.901Z,39.32
2023-05-18T12:26:02.914Z,40.84
2023-05-18T12:27:04.004Z,42.01
2023-05-18T12:28:03.047Z,40.52
2023-05-18T12:29:03.542Z,41.00
2023-05-18T12:30:02.936Z,39.21
2023-05-18T12:31:03.461Z,41.67
2023-05-18T12:32:03.317Z,43.05
2023-05-18T12:33:03.271Z,40.84
2023-05-18T12:34:02.693Z,40.05
2023-05-18T12:35:02.576Z,37.76
2023-05-18T12:36:02.165Z,38.95
2023-05-18T12:37:02.328Z,39.95
2023-05-18T12:38:03.140Z,40.44
2023-05-18T12:39:02.271Z,39.13
2023-05-18T12:40:02.586Z,38.16
2023-05-18T12:41:02.264Z,38.37
2023-05-18T12:42:02.565Z,40.36
2023-05-18T12:43:02.191Z,41.06
2023-05-18T12:44:02.806Z,40.06
2023-05-18T12:45:05.087Z,39.95
2023-05-18T12:46:02.736Z,38.45
2023-05-18T12:47:02.827Z,36.49
2023-05-18T12:48:02.761Z,38.99
2023-05-18T12:49:03.391Z,38.29
2023-05-18T12:50:03.461Z,39.29
2023-05-18T12:51:02.807Z,39.67
2023-05-18T12:52:02.864Z,37.68
2023-05-18T12:53:03.030Z,41.25